Main page
METAR-TAF:

METAR-TAF

Airports :

MoD Boscombe Down

Boscombe Down, England

latitude: 51-10N, longitude: 001-45W, elevation: 124 m

Current weather observation

The report was made 24 minutes ago, at 08:50 UTC
Wind 4 kt from the West/Northwest
Temperature 6°C
Humidity 75%
Pressure 1035 hPa
Visibility 10 km or more
no clouds below 1500 m and no cumulonimbus

METAR: EGDM 260850Z 29004KT CAVOK 06/02 Q1035 BLU NOSIG

Time: 09:14 (09:14 UTC)

Forecast

The report was made 1 hour and 44 minutes ago, at 07:30 UTC
Forecast valid from 26 at 09 UTC to 26 at 18 UTC
Wind 6 kt from the North/Northwest
Visibility 10 km or more
Few clouds at a height of 4000 ft

TAF: EGDM 260730Z 2609/2618 33006KT 9999 FEW040

Weather observations and forecasts of more than 4000 airports (METAR and TAF reports).

The available stations are represented by yellow and red dots on the map.

Hover mouse over dot to see the name of the station.

Then click to see weather observations and forecasts.

To change the map : click on the green buttons with a black cross to zoom in, on the green button with a dash to zoom out, or on the green arrows for adjacent maps.


METAR-TAF: